Time;durP1;ratioP1;P1;durP2;ratioP2;P2;SDS_P1;SDS_P2;PMS_P1;PMS_P2;Temp;Humidity;BMP_temperature;BMP_pressure;BME280_temperature;BME280_humidity;BME280_pressure;Samples;Min_cycle;Max_cycle;Signal;HPM_P1;HPM_P2
2023/08/30 00:07:31;;;;;;;50.27;36.70;;;19.30;99.90;;;;;;4839229;28;20334;-86
2023/08/30 00:32:16;;;;;;;53.47;34.60;;;19.10;99.90;;;;;;4631671;30;20257;-87
2023/08/30 01:28:40;;;;;;;61.23;39.77;;;19.00;99.90;;;;;;4525711;30;20739;-82
2023/08/30 01:53:41;;;;;;;42.97;31.70;;;18.70;99.90;;;;;;4689955;30;20570;-85
2023/08/30 02:14:17;;;;;;;47.30;32.87;;;18.50;99.90;;;;;;4573686;30;20266;-83
2023/08/30 02:44:30;;;;;;;39.00;27.83;;;18.10;99.90;;;;;;4648327;30;20211;-84
2023/08/30 03:09:53;;;;;;;39.33;28.53;;;17.80;99.90;;;;;;4600821;30;20251;-87
2023/08/30 03:30:23;;;;;;;53.00;33.27;;;17.40;99.90;;;;;;4591954;30;20241;-83
2023/08/30 04:00:47;;;;;;;59.70;37.47;;;17.20;99.90;;;;;;4635769;30;20204;-82
2023/08/30 04:26:11;;;;;;;49.03;32.90;;;17.50;99.90;;;;;;4625390;30;20716;-85
2023/08/30 04:46:02;;;;;;;42.77;30.33;;;17.80;99.90;;;;;;4614561;30;20506;-84
2023/08/30 05:11:38;;;;;;;31.90;24.43;;;18.00;99.90;;;;;;4651302;30;20449;-85
2023/08/30 05:36:57;;;;;;;22.33;16.37;;;18.40;99.90;;;;;;4539202;29;20222;-82
2023/08/30 05:57:33;;;;;;;21.60;15.60;;;18.60;99.90;;;;;;4677789;29;20230;-80
2023/08/30 06:47:34;;;;;;;27.13;22.23;;;18.40;99.90;;;;;;4505718;30;20625;-83
2023/08/30 07:07:53;;;;;;;31.63;24.47;;;18.50;99.90;;;;;;4555841;30;20903;-82
2023/08/30 07:38:45;;;;;;;52.63;32.33;;;18.00;99.90;;;;;;4723897;29;20278;-79
2023/08/30 07:59:18;;;;;;;52.53;30.97;;;18.00;99.90;;;;;;4669373;29;20209;-82
2023/08/30 08:19:38;;;;;;;55.37;32.93;;;17.90;99.90;;;;;;4675548;29;20201;-81
2023/08/30 08:23:57;;;;;;;55.67;32.00;;;17.80;99.90;;;;;;4604895;29;20445;-83
2023/08/30 09:25:25;;;;;;;18.83;15.07;;;17.80;99.90;;;;;;4524805;30;20271;-80
2023/08/30 09:50:52;;;;;;;12.90;10.53;;;17.70;99.90;;;;;;4585371;29;20303;-83
2023/08/30 10:16:09;;;;;;;12.27;10.97;;;17.30;99.90;;;;;;4577673;29;20276;-80
2023/08/30 10:56:14;;;;;;;12.67;10.97;;;18.20;99.90;;;;;;4427513;30;20655;-80
2023/08/30 11:17:00;;;;;;;8.97;7.80;;;18.40;99.90;;;;;;4616167;29;20954;-82
2023/08/30 11:41:51;;;;;;;8.57;7.67;;;18.20;99.90;;;;;;4526996;30;20731;-82
2023/08/30 12:07:53;;;;;;;8.30;7.03;;;18.20;99.90;;;;;;4563192;30;21110;-84
2023/08/30 12:37:39;;;;;;;9.27;7.27;;;18.30;99.90;;;;;;4621695;29;20220;-84
2023/08/30 12:58:13;;;;;;;13.73;9.37;;;18.40;99.90;;;;;;4705348;29;20946;-83
2023/08/30 13:18:50;;;;;;;12.90;10.53;;;18.70;99.90;;;;;;4626641;29;20225;-84
2023/08/30 13:48:41;;;;;;;10.05;7.82;;;19.50;99.90;;;;;;4546277;30;20216;-82
2023/08/30 14:09:20;;;;;;;9.88;7.80;;;19.20;99.90;;;;;;4711997;29;20210;-83
2023/08/30 14:34:42;;;;;;;6.68;6.03;;;21.00;99.90;;;;;;4807155;29;21174;-82
2023/08/30 14:54:48;;;;;;;7.05;5.47;;;20.20;99.90;;;;;;4548359;30;20239;-83
2023/08/30 15:20:29;;;;;;;7.35;6.65;;;19.40;99.90;;;;;;4547346;30;20358;-86
2023/08/30 15:51:06;;;;;;;6.20;5.60;;;19.00;99.90;;;;;;4605812;30;20264;-82
2023/08/30 15:55:33;;;;;;;6.30;5.53;;;18.90;99.90;;;;;;4560090;30;20486;-84
2023/08/30 16:21:17;;;;;;;6.43;5.70;;;18.60;99.90;;;;;;4676922;29;20215;-86
2023/08/30 16:57:03;;;;;;;5.03;4.40;;;18.20;99.90;;;;;;4764708;29;20436;-82
2023/08/30 17:01:25;;;;;;;4.77;4.20;;;18.10;99.90;;;;;;4724395;29;20235;-83
2023/08/30 17:22:06;;;;;;;9.13;5.50;;;18.00;99.90;;;;;;4713834;29;20261;-87
2023/08/30 17:52:45;;;;;;;9.77;7.30;;;17.90;99.90;;;;;;4697260;29;20619;-83
2023/08/30 18:13:06;;;;;;;11.37;7.83;;;17.90;99.90;;;;;;4748701;29;20225;-83
2023/08/30 18:38:05;;;;;;;10.53;6.93;;;17.70;99.90;;;;;;4649614;30;20458;-85
2023/08/30 19:08:55;;;;;;;11.17;8.40;;;17.80;99.90;;;;;;4628045;30;20791;-83
2023/08/30 19:34:10;;;;;;;10.13;7.47;;;17.40;99.90;;;;;;4608737;30;20222;-85
2023/08/30 19:59:08;;;;;;;11.33;8.10;;;17.50;99.90;;;;;;4662737;30;20576;-84
2023/08/30 20:14:36;;;;;;;12.70;9.10;;;17.40;99.90;;;;;;4650148;30;20631;-82
2023/08/30 20:44:34;;;;;;;11.93;9.43;;;17.50;99.90;;;;;;4545817;30;20278;-82
2023/08/30 21:10:14;;;;;;;11.70;9.00;;;17.50;99.90;;;;;;4471367;30;20651;-81
2023/08/30 21:41:02;;;;;;;13.70;9.63;;;17.50;99.90;;;;;;4670921;29;21334;-84
2023/08/30 21:45:23;;;;;;;9.70;8.70;;;17.50;99.90;;;;;;4595743;30;20537;-85
2023/08/30 22:21:01;;;;;;;12.63;10.40;;;17.30;99.90;;;;;;4622200;29;20624;-86
2023/08/30 22:46:42;;;;;;;11.63;10.40;;;17.20;99.90;;;;;;4677379;29;20670;-83
2023/08/30 23:17:12;;;;;;;13.10;10.33;;;17.20;99.90;;;;;;4688044;29;20248;-85
2023/08/30 23:37:26;;;;;;;13.10;10.40;;;17.10;99.90;;;;;;4533382;30;20247;-82
